Osceola, Iowa
Current Conditions -  °F | °C
As of 1:55 PM on Sunday 21 Dec 2014 (Local Time) from KI75 Reporting Station
Haze Haze  
Wind Chill: 32°   Ceiling: 700
Heat Index: 40°   Visibility: 4mi
Dew Point: 39°   Wind: 15mph
Humidity: 93%   Direction: 180°S
Pressure: 29.85"   Gusts: 20mph
Location:  41.03°N, 93.77°W
Report Text: KI75 211955Z AUTO 18013G17KT 4SM BR OVC007 05/04 A2985 RMK AO2 T00470037
Loading
Personal Weather Stations






























Interactive Weather Map New forecast layout! Learn more

10-Day Weather Forecast

Advertisements
Track Severe Weather on mobile